Ankergracht — PCQL — position and weather

sailwx.info

Track history (hours):
 
Tides and Currents Weather Stations Pressure Air Temp Water Temp Dewpoint Dewpoint Depression Visibility Wind Speed Wind Dir Waves Ship Positions

Ankergracht

Last reported at 2015-May-10 04:25 UTC. Time now 2015-May-27 05:49 UTC.
Position N 14°26' W 062°57'.
Warning: this ship's position is 17 days out of date.

Length 130 m; beam 19 m; draft 9 m.

Type: Ship (hazmat cat A). MMSI: 244852000.

Date/timePositionNaut miles runAvg speedWind from/ knotsBaromVisibWave heightAir tempDewpointWater temp
2015-May-10 04:25N 14°26' W 062°57'8514.4
2015-May-09 22:31N 14°57' W 061°35'1414.8
2015-May-09 21:33N 15°02' W 061°22'  
2015-Apr-30 19:33N 35°34' W 010°24'3414.1
2015-Apr-30 17:07N 35°47' W 009°46'814.1
2015-Apr-30 16:33N 35°50' W 009°37'3514.2
2015-Apr-30 14:06N 36°04' W 008°57'1213.9
2015-Apr-30 13:14N 36°09' W 008°44'5113.4
2015-Apr-30 09:26N 36°34' W 007°48'1212.7
2015-Apr-30 08:30N 36°39' W 007°35'  
Track history (hours):
 
Tides and Currents Weather Stations Pressure Air Temp Water Temp Dewpoint Dewpoint Depression Visibility Wind Speed Wind Dir Waves Ship Positions

Ankergracht

Last reported at 2015-May-10 04:25 UTC. Time now 2015-May-27 05:49 UTC.
Position N 14°26' W 062°57'.
Warning: this ship's position is 17 days out of date.

Length 130 m; beam 19 m; draft 9 m.

Type: Ship (hazmat cat A). MMSI: 244852000.

Date/timePositionNaut miles runAvg speedWind from/ knotsBaromVisibWave heightAir tempDewpointWater temp
2015-May-10 04:25N 14°26' W 062°57'8514.4
2015-May-09 22:31N 14°57' W 061°35'1414.8
2015-May-09 21:33N 15°02' W 061°22'  
2015-Apr-30 19:33N 35°34' W 010°24'3414.1
2015-Apr-30 17:07N 35°47' W 009°46'814.1
2015-Apr-30 16:33N 35°50' W 009°37'3514.2
2015-Apr-30 14:06N 36°04' W 008°57'1213.9
2015-Apr-30 13:14N 36°09' W 008°44'5113.4
2015-Apr-30 09:26N 36°34' W 007°48'1212.7
2015-Apr-30 08:30N 36°39' W 007°35'  

Dump ship's entire track history